• Join FlightAware (Why Join?)
  • Login
  • US Flag 
05:04AM EDT


 

Airport Tracker/Info


-or-


 

Live Flight TrackerFlight Track Log ✈ N775NC ✈ 13-Oct-2013 ✈ KATL - KIAD

Flight Track Log - Related Links

Times and Time Zones

All times are in EDT time to prevent confusion due to time zone crossing. See the N775NC flight status page for this flight to view local times or setup timezone preferences in your user account.

Time Position Orientation Groundspeed Altitude Reporting Facility
EDT Latitude Longitude Course Direction KTS MPH feet Rate Location/Type
03:53PM 33.6561 -84.3683 52° Northeast 443 510 2,300  Level Atlanta Center
03:54PM 33.6833 -84.2883 68° East 347 399 4,400 2,400 Climbing Atlanta Center
03:55PM 33.7147 -84.2036 66° East 294 338 7,100 2,220 Climbing Atlanta Center
03:56PM 33.7483 -84.1189 64° Northeast 289 333 8,900 1,440 Climbing Atlanta Center
03:57PM 33.7839 -84.0339 63° Northeast 289 333 10,000 1,080 Climbing Atlanta Center
03:58PM 33.8192 -83.9239 69° East 323 372 11,100 1,800 Climbing Atlanta Center
03:59PM 34.0905 -83.8865 52° Northeast  Level Estimated
03:59PM 33.8544 -83.8111 69° East 356 410 13,700  Level Atlanta Center
04:00PM 33.8961 -83.7136 63° Northeast 361 415 15,600 1,860 Climbing Atlanta Center
04:01PM 33.9542 -83.6081 56° Northeast 367 422 17,500 1,740 Climbing Atlanta Center
04:02PM 34.0142 -83.5000 56° Northeast 385 443 19,100 1,680 Climbing Atlanta Center
04:03PM 34.0931 -83.4017 46° Northeast 390 449 20,900 1,740 Climbing Atlanta Center
04:04PM 34.1656 -83.3006 49° Northeast 395 455 22,600 1,380 Climbing Atlanta Center
04:05PM 34.2464 -83.1994 46° Northeast 402 463 23,700 900 Climbing Atlanta Center
04:06PM 34.3250 -83.0906 49° Northeast 418 481 24,500 780 Climbing Atlanta Center
04:07PM 34.4117 -82.9789 47° Northeast 437 503 25,300 840 Climbing Atlanta Center
04:08PM 34.5044 -82.8517 48° Northeast 452 520 26,200 840 Climbing Atlanta Center
04:09PM 34.5822 -82.7217 54° Northeast 468 539 27,000 780 Climbing Atlanta Center
04:10PM 34.6603 -82.5969 53° Northeast 468 539 27,800 780 Climbing Atlanta Center
04:11PM 34.7422 -82.4664 53° Northeast 474 545 28,600 600 Climbing Atlanta Center
04:12PM 34.8175 -82.3283 56° Northeast 479 551 29,000 180 Climbing Atlanta Center
04:13PM 34.8886 -82.1878 58° Northeast 484 557 29,000  Level Atlanta Center
04:14PM 34.9700 -82.0592 52° Northeast 484 557 29,000  Level Atlanta Center
04:15PM 35.0492 -81.9278 54° Northeast 478 550 29,000  Level Atlanta Center
04:16PM 35.1303 -81.7964 53° Northeast 484 557 29,000  Level Atlanta Center
04:17PM 35.2028 -81.6572 57° Northeast 478 550 29,000  Level Atlanta Center
04:18PM 35.2731 -81.5203 58° Northeast 478 550 29,000  Level Atlanta Center
04:19PM 35.3433 -81.3831 58° Northeast 478 550 29,000  Level Atlanta Center
04:20PM 35.4153 -81.2458 57° Northeast 483 556 29,000  Level Atlanta Center
04:21PM 35.4892 -81.1056 57° Northeast 488 562 29,000  Level Atlanta Center
04:22PM 35.5653 -80.9700 55° Northeast 488 562 29,000  Level Atlanta Center
04:23PM 35.6389 -80.8369 56° Northeast 478 550 29,000  Level Atlanta Center
04:24PM 35.7125 -80.7011 56° Northeast 473 544 29,000  Level Atlanta Center
04:25PM 35.7839 -80.5625 58° Northeast 473 544 29,000  Level Atlanta Center
04:26PM 35.8442 -80.4192 63° Northeast 473 544 29,000  Level Atlanta Center
04:28PM 35.9475 -80.1719 63° Northeast 474 545 29,000  Level Washington Center
04:29PM 36.0197 -80.0219 59° Northeast 458 527 29,000  Level Washington Center
04:30PM 36.0833 -79.8817 61° Northeast 458 527 29,000  Level Washington Center
04:31PM 36.1711 -79.7578 49° Northeast 468 539 29,000  Level Washington Center
04:32PM 36.2519 -79.6539 46° Northeast 468 539 29,000  Level Washington Center
04:33PM 36.3442 -79.5169 50° Northeast 468 539 29,000 -60 Level Washington Center
04:34PM 36.4108 -79.3936 56° Northeast 468 539 28,900 -540 Descending Washington Center
04:35PM 36.4947 -79.2453 55° Northeast 468 539 28,000 -900 Descending Washington Center
04:36PM 36.5739 -79.1119 53° Northeast 473 544 27,100 -1,140 Descending Washington Center
04:37PM 36.6525 -78.9861 52° Northeast 473 544 25,700 -1,080 Descending Washington Center
04:38PM 36.7228 -78.8569 56° Northeast 484 557 25,000 -360 Descending Washington Center
04:39PM 36.8017 -78.7228 54° Northeast 484 557 25,000  Level Washington Center
04:40PM 36.8800 -78.5911 53° Northeast 484 557 25,000  Level Washington Center
04:41PM 36.9733 -78.4464 51° Northeast 484 557 25,000  Level Washington Center
04:42PM 37.0778 -78.3461 37° Northeast 473 544 25,000  Level Washington Center
04:43PM 37.1803 -78.2403 39° Northeast 468 539 25,000 -60 Level Washington Center
04:44PM 37.2639 -78.1389 44° Northeast 468 539 24,900 -720 Descending Washington Center
04:45PM 37.3642 -78.0297 41° Northeast 463 533 23,700 -1,380 Descending Washington Center
04:46PM 37.4581 -77.9231 42° Northeast 463 533 22,200 -900 Descending Washington Center
04:47PM 37.5539 -77.8186 41° Northeast 458 527 22,000 -600 Descending Washington Center
04:48PM 37.6719 -77.7617 21° North 445 512 21,100 -2,220 Descending Washington Center
04:49PM 37.7794 -77.6964 26° Northeast 435 501 17,700 -3,480 Descending Washington Center
04:50PM 37.8786 -77.6203 31° Northeast 430 495 14,300 -3,060 Descending Washington Center
04:51PM 37.9758 -77.5542 28° Northeast 409 471 11,600 -2,220 Descending Washington Center
04:52PM 38.0767 -77.5094 19° North 383 441 9,900 -840 Descending Washington Center
04:53PM 38.1564 -77.4692 22° Northeast 333 383 10,000  Climbing Washington Center
04:54PM 38.2219 -77.4153 33° Northeast 294 338 10,000  Level Washington Center
04:55PM 38.2972 -77.3933 13° North 271 312 10,000 -780 Level Washington Center
04:56PM 38.3717 -77.4428 332° Northwest 266 306 8,500 -1,380 Descending Washington Center
04:57PM 38.4483 -77.4739 342° North 272 313 7,300 -780 Descending Washington Center
04:58PM 38.5256 -77.4678 North 277 319 7,000 -300 Descending Washington Center
04:59PM 38.6006 -77.4672 360° North 271 312 6,700 -600 Descending Washington Center
05:00PM 38.6631 -77.4689 359° North 249 287 5,900 -960 Descending Washington Center
05:01PM 38.7194 -77.4647 North 220 253 4,900 -1,080 Descending Washington Center
05:03PM 38.8000 -77.4667 359° North 184 212 3,300 -1,080 Descending Potomac TRACON
05:04PM 38.8333 -77.4667 360° North 155 178 2,400 -960 Descending Potomac TRACON
05:05PM 38.8833 -77.4667 360° North 150 173 1,400 -240 Descending Potomac TRACON
05:06PM 38.9500 -77.4667 360° North 215 247 2,000 780 Climbing Potomac TRACON
05:08PM 39.0333 -77.6000 309° West 262 302 4,000 900 Climbing Potomac TRACON
05:09PM 38.9833 -77.6500 218° Southwest 241 277 4,900 420 Climbing Potomac TRACON
05:10PM 38.9167 -77.6167 159° South 234 269 4,900  Level Potomac TRACON
05:11PM 38.8667 -77.6000 165° South 231 266 4,900  Level Potomac TRACON
05:12PM 38.7833 -77.6000 180° South 231 266 5,000  Climbing Potomac TRACON
05:13PM 38.7333 -77.6000 180° South 207 238 5,000  Level Potomac TRACON
05:14PM 38.6833 -77.5833 165° South 204 235 5,000 -60 Level Potomac TRACON
05:15PM 38.6833 -77.5167 90° East 180 207 4,900  Descending Potomac TRACON
05:16PM 38.7000 -77.4667 67° East 183 211 5,000 -240 Climbing Potomac TRACON
05:17PM 38.7667 -77.4667 360° North 189 217 4,500 -1,080 Descending Potomac TRACON
05:18PM 38.8167 -77.4667 360° North 187 215 2,700 -1,260 Descending Potomac TRACON
05:19PM 38.8667 -77.4667 360° North 153 176 1,900 -900 Descending Potomac TRACON
05:20PM 38.9000 -77.4667 360° North 140 161 1,000 -900 Descending Potomac TRACON